createdAt,value
2018-12-24T00:00:53.343Z,13.60
2018-12-24T00:02:14.374Z,13.60
2018-12-24T00:03:35.396Z,13.50
2018-12-24T00:04:56.407Z,13.50
2018-12-24T00:05:57.821Z,13.60
2018-12-24T00:07:18.841Z,13.60
2018-12-24T00:08:39.854Z,13.60
2018-12-24T00:10:00.869Z,13.60
2018-12-24T00:11:21.930Z,13.70
2018-12-24T00:12:42.942Z,13.60
2018-12-24T00:14:04.060Z,13.60
2018-12-24T00:15:25.173Z,13.60
2018-12-24T00:16:46.489Z,13.70
2018-12-24T00:18:07.505Z,13.70
2018-12-24T00:19:28.530Z,13.70
2018-12-24T00:20:49.546Z,13.50
2018-12-24T00:22:10.573Z,13.70
2018-12-24T00:23:11.718Z,13.70
2018-12-24T00:24:32.735Z,13.70
2018-12-24T00:25:53.749Z,13.60
2018-12-24T00:27:14.893Z,13.70
2018-12-24T00:28:35.911Z,13.60
2018-12-24T00:29:56.921Z,13.70
2018-12-24T00:31:17.941Z,13.60
2018-12-24T00:32:38.965Z,13.70
2018-12-24T00:33:59.978Z,13.70
2018-12-24T00:35:01.119Z,13.80
2018-12-24T00:36:22.138Z,13.80
2018-12-24T00:37:43.332Z,13.80
2018-12-24T00:38:57.853Z,13.70
2018-12-24T00:40:12.591Z,13.70
2018-12-24T00:41:27.557Z,13.70
2018-12-24T00:42:42.306Z,13.80
2018-12-24T00:43:57.014Z,13.80
2018-12-24T00:45:11.525Z,13.70
2018-12-24T00:46:26.210Z,13.70
2018-12-24T00:47:41.036Z,13.70
2018-12-24T00:48:55.907Z,13.70
2018-12-24T00:50:10.715Z,13.70
2018-12-24T00:51:25.524Z,13.50
2018-12-24T00:52:40.257Z,13.60
2018-12-24T00:53:54.998Z,13.50
2018-12-24T00:55:09.825Z,13.60
2018-12-24T00:56:24.419Z,13.50
2018-12-24T00:57:39.139Z,13.50
2018-12-24T00:58:40.289Z,13.40
2018-12-24T01:00:01.595Z,13.50
2018-12-24T01:01:22.622Z,13.60
2018-12-24T01:02:43.637Z,13.40
2018-12-24T01:04:04.665Z,13.50
2018-12-24T01:05:25.681Z,13.40
2018-12-24T01:06:46.689Z,13.50
2018-12-24T01:08:07.707Z,13.50
2018-12-24T01:09:28.733Z,13.50
2018-12-24T01:10:29.883Z,13.50
2018-12-24T01:11:50.902Z,13.50
2018-12-24T01:13:11.953Z,13.60
2018-12-24T01:14:33.001Z,13.60
2018-12-24T01:15:54.013Z,13.40
2018-12-24T01:17:15.058Z,13.40
2018-12-24T01:18:36.086Z,13.60
2018-12-24T01:19:57.130Z,13.40
2018-12-24T01:21:18.139Z,13.60
2018-12-24T01:22:19.322Z,13.60
2018-12-24T01:23:40.326Z,13.60
2018-12-24T01:25:01.350Z,13.50
2018-12-24T01:26:22.368Z,13.60
2018-12-24T01:27:43.378Z,13.70
2018-12-24T01:29:04.492Z,13.60
2018-12-24T01:30:25.526Z,13.70
2018-12-24T01:31:46.653Z,13.70
2018-12-24T01:33:07.709Z,13.70
2018-12-24T01:34:08.852Z,13.70
2018-12-24T01:35:29.877Z,13.70
2018-12-24T01:36:50.897Z,13.70
2018-12-24T01:38:11.918Z,13.70
2018-12-24T01:39:26.930Z,13.70
2018-12-24T01:40:41.762Z,13.60
2018-12-24T01:41:56.478Z,13.70
2018-12-24T01:43:11.265Z,13.70
2018-12-24T01:44:25.962Z,13.70
2018-12-24T01:45:40.768Z,13.70
2018-12-24T01:46:55.544Z,13.70
2018-12-24T01:48:10.189Z,13.70
2018-12-24T01:49:24.837Z,13.70
2018-12-24T01:50:39.730Z,13.70
2018-12-24T01:51:54.494Z,13.70
2018-12-24T01:53:09.134Z,13.80
2018-12-24T01:54:23.909Z,13.70
2018-12-24T01:55:38.765Z,13.60
2018-12-24T01:56:53.461Z,13.70
2018-12-24T01:58:08.194Z,13.70
2018-12-24T01:59:22.882Z,13.70
2018-12-24T02:00:37.661Z,13.70
2018-12-24T02:01:38.828Z,13.70
2018-12-24T02:02:59.847Z,13.70
2018-12-24T02:04:20.861Z,13.80
2018-12-24T02:05:41.894Z,13.60
2018-12-24T02:07:02.926Z,13.60
2018-12-24T02:11:06.735Z,13.50
2018-12-24T02:12:27.766Z,13.60
2018-12-24T02:13:48.788Z,13.40
2018-12-24T02:15:09.793Z,13.40
2018-12-24T02:16:30.803Z,13.20
2018-12-24T02:17:52.278Z,13.00
2018-12-24T02:19:13.296Z,12.60
2018-12-24T02:20:34.768Z,12.30
2018-12-24T02:21:55.805Z,12.10
2018-12-24T02:23:16.830Z,11.80
2018-12-24T02:24:37.837Z,11.50
2018-12-24T02:25:58.854Z,11.20
2018-12-24T02:27:19.966Z,11.00
2018-12-24T02:28:40.977Z,10.90
2018-12-24T02:30:02.008Z,10.80
2018-12-24T02:31:23.021Z,10.60
2018-12-24T02:32:44.057Z,10.50
2018-12-24T02:34:05.141Z,10.30
2018-12-24T02:35:26.158Z,10.30
2018-12-24T02:36:47.169Z,10.30
2018-12-24T02:38:08.197Z,10.20
2018-12-24T02:39:20.339Z,10.20
2018-12-24T02:40:41.358Z,10.20
2018-12-24T02:42:02.379Z,10.10
2018-12-24T02:43:23.401Z,10.10
2018-12-24T02:44:44.423Z,10.10
2018-12-24T02:46:05.447Z,10.10
2018-12-24T02:47:26.461Z,10.00
2018-12-24T02:48:47.489Z,10.10
2018-12-24T02:50:08.503Z,10.10
2018-12-24T02:51:29.523Z,10.10
2018-12-24T02:52:50.537Z,10.00
2018-12-24T02:54:11.574Z,10.00
2018-12-24T02:55:32.589Z,9.90
2018-12-24T02:56:53.603Z,10.00
2018-12-24T02:58:14.626Z,9.90
2018-12-24T02:59:35.886Z,9.90
2018-12-24T03:00:56.909Z,9.90
2018-12-24T03:01:58.045Z,10.00
2018-12-24T03:03:19.064Z,10.00
2018-12-24T03:04:40.367Z,9.90
2018-12-24T03:06:01.377Z,9.80
2018-12-24T03:07:22.398Z,9.90
2018-12-24T03:08:43.417Z,10.00
2018-12-24T03:10:04.452Z,9.90
2018-12-24T03:11:25.486Z,9.90
2018-12-24T03:12:46.496Z,9.90
2018-12-24T03:13:47.634Z,9.90
2018-12-24T03:15:08.673Z,9.90
2018-12-24T03:16:29.700Z,9.80
2018-12-24T03:17:50.741Z,9.80
2018-12-24T03:19:11.754Z,10.00
2018-12-24T03:20:32.793Z,9.90
2018-12-24T03:21:53.814Z,10.00
2018-12-24T03:23:14.834Z,9.90
2018-12-24T03:24:35.942Z,9.80
2018-12-24T03:25:37.131Z,9.80
2018-12-24T03:26:58.150Z,9.80
2018-12-24T03:28:19.169Z,9.70
2018-12-24T03:29:40.189Z,9.80
2018-12-24T03:31:01.531Z,9.80
2018-12-24T03:32:22.542Z,9.80
2018-12-24T03:33:43.555Z,9.80
2018-12-24T03:35:04.570Z,9.80
2018-12-24T03:36:25.593Z,9.80
2018-12-24T03:37:26.730Z,9.80
2018-12-24T03:38:47.744Z,9.80
2018-12-24T03:40:01.970Z,9.80
2018-12-24T03:41:16.912Z,9.60
2018-12-24T03:42:18.057Z,9.80
2018-12-24T03:43:39.079Z,9.70
2018-12-24T03:45:00.241Z,9.60
2018-12-24T03:46:21.331Z,9.60
2018-12-24T03:47:42.346Z,9.60
2018-12-24T03:48:43.481Z,9.80
2018-12-24T03:50:04.494Z,9.70
2018-12-24T03:51:25.546Z,9.70
2018-12-24T03:52:46.561Z,9.60
2018-12-24T03:54:07.579Z,9.70
2018-12-24T03:55:28.597Z,9.60
2018-12-24T03:56:49.799Z,9.70
2018-12-24T03:58:10.823Z,9.60
2018-12-24T03:59:31.840Z,9.50
2018-12-24T04:00:32.981Z,9.60
2018-12-24T04:01:54.040Z,9.50
2018-12-24T04:03:15.050Z,9.50
2018-12-24T04:04:36.070Z,9.50
2018-12-24T04:05:57.082Z,9.50
2018-12-24T04:07:18.111Z,9.50
2018-12-24T04:08:39.127Z,9.40
2018-12-24T04:10:00.168Z,9.30
2018-12-24T04:11:21.261Z,9.30
2018-12-24T04:12:22.421Z,9.30
2018-12-24T04:13:43.441Z,9.30
2018-12-24T04:15:04.463Z,9.30
2018-12-24T04:16:25.482Z,9.20
2018-12-24T04:17:46.516Z,9.10
2018-12-24T04:19:07.543Z,9.10
2018-12-24T04:20:28.558Z,8.90
2018-12-24T04:21:49.579Z,9.00
2018-12-24T04:23:10.601Z,9.00
2018-12-24T04:24:11.737Z,8.90
2018-12-24T04:25:32.766Z,8.90
2018-12-24T04:26:53.832Z,8.90
2018-12-24T04:28:14.871Z,8.80
2018-12-24T04:29:35.894Z,8.80
2018-12-24T04:30:56.914Z,8.70
2018-12-24T04:32:17.925Z,8.70
2018-12-24T04:33:38.956Z,8.70
2018-12-24T04:34:59.973Z,8.70
2018-12-24T04:36:20.993Z,8.70
2018-12-24T04:37:42.010Z,8.60
2018-12-24T04:39:03.937Z,8.70
2018-12-24T04:40:18.974Z,8.60
2018-12-24T04:41:33.753Z,8.60
2018-12-24T04:42:48.426Z,8.50
2018-12-24T04:44:03.001Z,8.60
2018-12-24T04:45:17.741Z,8.60
2018-12-24T04:46:32.687Z,8.60
2018-12-24T04:47:47.447Z,8.60
2018-12-24T04:49:02.145Z,8.70
2018-12-24T04:50:16.907Z,8.60
2018-12-24T04:51:31.605Z,8.60
2018-12-24T04:52:46.390Z,8.70
2018-12-24T04:54:01.097Z,8.70
2018-12-24T04:55:15.743Z,8.60
2018-12-24T04:56:16.926Z,8.70
2018-12-24T04:57:38.017Z,8.80
2018-12-24T04:58:59.205Z,8.80
2018-12-24T05:00:20.294Z,8.80
2018-12-24T05:01:41.321Z,8.80
2018-12-24T05:03:02.337Z,8.70
2018-12-24T05:04:23.398Z,8.70
2018-12-24T05:05:44.414Z,8.80
2018-12-24T05:07:05.429Z,8.80
2018-12-24T05:08:26.447Z,8.70
2018-12-24T05:09:47.568Z,8.60
2018-12-24T05:11:08.582Z,8.60
2018-12-24T05:12:29.597Z,8.60
2018-12-24T05:13:30.733Z,8.60
2018-12-24T05:14:51.762Z,8.60
2018-12-24T05:16:12.870Z,8.60
2018-12-24T05:17:33.888Z,8.60
2018-12-24T05:18:55.103Z,8.60
2018-12-24T05:20:16.132Z,8.50
2018-12-24T05:21:37.154Z,8.50
2018-12-24T05:22:58.182Z,8.40
2018-12-24T05:24:19.302Z,8.30
2018-12-24T05:25:20.442Z,8.40
2018-12-24T05:26:41.457Z,8.40
2018-12-24T05:28:02.485Z,8.40
2018-12-24T05:29:23.509Z,8.40
2018-12-24T05:30:44.526Z,8.30
2018-12-24T05:32:05.550Z,8.30
2018-12-24T05:33:26.571Z,8.40
2018-12-24T05:34:47.593Z,8.40
2018-12-24T05:36:08.623Z,8.30
2018-12-24T05:37:09.757Z,8.30
2018-12-24T05:38:30.778Z,8.30
2018-12-24T05:39:45.447Z,8.30
2018-12-24T05:41:00.114Z,8.30
2018-12-24T05:42:01.262Z,8.30
2018-12-24T05:43:22.284Z,8.30
2018-12-24T05:44:43.312Z,8.30
2018-12-24T05:46:04.324Z,8.30
2018-12-24T05:47:25.341Z,8.30
2018-12-24T05:48:46.353Z,8.30
2018-12-24T05:50:07.394Z,8.30
2018-12-24T05:51:28.401Z,8.30
2018-12-24T05:52:49.417Z,8.30
2018-12-24T05:54:10.437Z,8.40
2018-12-24T05:55:31.461Z,8.40
2018-12-24T05:56:52.503Z,8.30
2018-12-24T05:58:13.521Z,8.40
2018-12-24T05:59:34.538Z,8.20
2018-12-24T06:00:55.577Z,8.40
2018-12-24T06:02:16.597Z,8.20
2018-12-24T06:03:37.615Z,8.40
2018-12-24T06:04:58.628Z,8.40
2018-12-24T06:06:19.674Z,8.40
2018-12-24T06:07:40.697Z,8.50
2018-12-24T06:08:41.843Z,8.40
2018-12-24T06:10:03.665Z,8.40
2018-12-24T06:11:04.809Z,8.30
2018-12-24T06:12:25.834Z,8.40
2018-12-24T06:13:46.854Z,8.30
2018-12-24T06:15:07.875Z,8.30
2018-12-24T06:16:28.902Z,8.30
2018-12-24T06:17:30.041Z,8.40
2018-12-24T06:18:51.077Z,8.40
2018-12-24T06:20:12.117Z,8.30
2018-12-24T06:21:33.125Z,8.30
2018-12-24T06:22:54.142Z,8.40
2018-12-24T06:24:15.162Z,8.50
2018-12-24T06:25:36.198Z,8.40
2018-12-24T06:26:57.210Z,8.30
2018-12-24T06:28:18.234Z,8.50
2018-12-24T06:29:19.373Z,8.50
2018-12-24T06:30:40.441Z,8.50
2018-12-24T06:32:01.457Z,8.40
2018-12-24T06:33:22.478Z,8.50
2018-12-24T06:34:43.494Z,8.60
2018-12-24T06:35:44.646Z,8.50
2018-12-24T06:37:05.670Z,8.50
2018-12-24T06:38:26.779Z,8.50
2018-12-24T06:39:47.821Z,8.50
2018-12-24T06:41:08.858Z,8.50
2018-12-24T06:42:30.330Z,8.50
2018-12-24T06:43:31.470Z,8.40
2018-12-24T06:44:52.496Z,8.50
2018-12-24T06:46:13.523Z,8.60
2018-12-24T06:47:34.544Z,8.60
2018-12-24T06:49:02.629Z,8.40
2018-12-24T06:50:23.648Z,8.50
2018-12-24T06:51:24.801Z,8.40
2018-12-24T06:52:45.823Z,8.50
2018-12-24T06:54:06.849Z,8.40
2018-12-24T06:55:27.877Z,8.50
2018-12-24T06:56:48.904Z,8.40
2018-12-24T06:58:09.934Z,8.50
2018-12-24T06:59:30.965Z,8.60
2018-12-24T07:00:51.978Z,8.60
2018-12-24T07:02:13.018Z,8.50
2018-12-24T07:03:34.038Z,8.60
2018-12-24T07:04:55.053Z,8.60
2018-12-24T07:06:16.084Z,8.50
2018-12-24T07:07:37.127Z,8.50
2018-12-24T07:08:58.131Z,8.50
2018-12-24T07:10:19.188Z,8.50
2018-12-24T07:11:40.292Z,8.50
2018-12-24T07:13:01.311Z,8.50
2018-12-24T07:14:22.321Z,8.60
2018-12-24T07:15:43.351Z,8.60
2018-12-24T07:17:04.383Z,8.60
2018-12-24T07:18:05.522Z,8.50
2018-12-24T07:19:26.536Z,8.60
2018-12-24T07:20:47.577Z,8.60
2018-12-24T07:22:08.594Z,8.60
2018-12-24T07:23:29.614Z,8.70
2018-12-24T07:24:50.637Z,8.60
2018-12-24T07:26:11.666Z,8.50
2018-12-24T07:27:32.678Z,8.70
2018-12-24T07:28:59.024Z,8.70
2018-12-24T07:30:16.641Z,8.70
2018-12-24T07:31:37.667Z,8.60
2018-12-24T07:32:58.708Z,8.70
2018-12-24T07:34:19.851Z,8.70
2018-12-24T07:35:40.929Z,8.70
2018-12-24T07:36:42.177Z,8.70
2018-12-24T07:38:03.213Z,8.60
2018-12-24T07:39:24.215Z,8.60
2018-12-24T07:40:39.162Z,8.70
2018-12-24T07:41:54.005Z,8.70
2018-12-24T07:43:08.749Z,8.70
2018-12-24T07:44:24.219Z,8.70
2018-12-24T07:45:39.388Z,8.70
2018-12-24T07:46:54.005Z,8.70
2018-12-24T07:47:55.166Z,8.70
2018-12-24T07:49:16.188Z,8.70
2018-12-24T07:50:37.204Z,8.60
2018-12-24T07:51:58.245Z,8.50
2018-12-24T07:53:19.246Z,8.60
2018-12-24T07:54:40.265Z,8.50
2018-12-24T07:56:01.410Z,8.70
2018-12-24T07:57:22.445Z,8.60
2018-12-24T07:58:43.765Z,8.60
2018-12-24T08:00:05.282Z,8.60
2018-12-24T08:01:26.322Z,8.70
2018-12-24T08:02:27.448Z,8.60
2018-12-24T08:03:48.473Z,8.60
2018-12-24T08:05:09.502Z,8.60
2018-12-24T08:06:30.535Z,8.60
2018-12-24T08:07:51.550Z,8.50
2018-12-24T08:09:12.603Z,8.50
2018-12-24T08:10:33.618Z,8.40
2018-12-24T08:11:54.645Z,8.40
2018-12-24T08:13:15.668Z,8.40
2018-12-24T08:14:36.681Z,8.40
2018-12-24T08:15:57.740Z,8.40
2018-12-24T08:17:18.813Z,8.40
2018-12-24T08:18:39.840Z,8.50
2018-12-24T08:20:00.857Z,8.50
2018-12-24T08:21:21.897Z,8.40
2018-12-24T08:22:42.952Z,8.50
2018-12-24T08:24:03.973Z,8.40
2018-12-24T08:25:24.986Z,8.40
2018-12-24T08:26:46.018Z,8.50
2018-12-24T08:28:07.038Z,8.40
2018-12-24T08:29:08.169Z,8.40
2018-12-24T08:30:29.186Z,8.60
2018-12-24T08:31:50.217Z,8.60
2018-12-24T08:33:11.233Z,8.50
2018-12-24T08:34:32.258Z,8.40
2018-12-24T08:35:47.110Z,8.50
2018-12-24T08:37:01.955Z,8.60
2018-12-24T08:38:16.654Z,8.60
2018-12-24T08:39:31.611Z,8.50
2018-12-24T08:40:46.446Z,8.40
2018-12-24T08:42:01.170Z,8.60
2018-12-24T08:43:15.989Z,8.50
2018-12-24T08:44:30.738Z,8.60
2018-12-24T08:45:45.405Z,8.50
2018-12-24T08:47:00.057Z,8.60
2018-12-24T08:48:01.497Z,8.70
2018-12-24T08:49:22.518Z,8.70
2018-12-24T08:50:43.533Z,8.70
2018-12-24T08:52:04.655Z,8.70
2018-12-24T08:53:25.754Z,8.70
2018-12-24T08:54:46.783Z,8.70
2018-12-24T08:56:07.874Z,8.60
2018-12-24T08:57:28.911Z,8.70
2018-12-24T08:58:49.918Z,8.60
2018-12-24T09:00:10.934Z,8.80
2018-12-24T09:01:31.945Z,8.80
2018-12-24T09:02:52.993Z,8.80
2018-12-24T09:04:14.014Z,8.70
2018-12-24T09:05:35.320Z,8.60
2018-12-24T09:06:56.331Z,8.70
2018-12-24T09:08:17.363Z,8.70
2018-12-24T09:09:38.673Z,8.70
2018-12-24T09:10:39.812Z,8.80
2018-12-24T09:12:00.833Z,8.80
2018-12-24T09:13:21.867Z,8.80
2018-12-24T09:14:50.088Z,8.70
2018-12-24T09:16:05.787Z,8.80
2018-12-24T09:17:26.801Z,8.80
2018-12-24T09:18:47.830Z,8.80
2018-12-24T09:20:08.835Z,8.70
2018-12-24T09:21:29.861Z,8.80
2018-12-24T09:22:50.873Z,8.90
2018-12-24T09:23:52.057Z,8.70
2018-12-24T09:25:13.170Z,8.80
2018-12-24T09:26:34.178Z,8.90
2018-12-24T09:27:55.204Z,8.80
2018-12-24T09:29:16.228Z,8.80
2018-12-24T09:30:37.715Z,8.80
2018-12-24T09:31:58.766Z,8.80
2018-12-24T09:33:19.786Z,8.90
2018-12-24T09:34:40.834Z,8.80
2018-12-24T09:35:55.613Z,8.90
2018-12-24T09:37:10.469Z,8.90
2018-12-24T09:38:25.056Z,8.70
2018-12-24T09:39:39.547Z,8.70
2018-12-24T09:40:54.310Z,8.70
2018-12-24T09:41:55.462Z,8.70
2018-12-24T09:43:16.489Z,8.70
2018-12-24T09:44:37.622Z,8.60
2018-12-24T09:45:58.649Z,8.80
2018-12-24T09:47:19.684Z,8.70
2018-12-24T09:48:40.708Z,8.70
2018-12-24T09:50:01.926Z,8.60
2018-12-24T09:51:22.942Z,8.70
2018-12-24T09:52:43.957Z,8.70
2018-12-24T09:53:45.114Z,8.60
2018-12-24T09:55:06.135Z,8.70
2018-12-24T09:56:27.155Z,8.60
2018-12-24T09:57:48.186Z,8.70
2018-12-24T09:59:09.498Z,8.70
2018-12-24T10:00:30.510Z,8.70
2018-12-24T10:01:51.534Z,8.70
2018-12-24T10:03:12.748Z,8.80
2018-12-24T10:04:33.781Z,8.70
2018-12-24T10:05:55.493Z,8.80
2018-12-24T10:07:36.619Z,8.70
2018-12-24T10:08:57.690Z,8.70
2018-12-24T10:10:18.709Z,8.60
2018-12-24T10:11:39.721Z,8.70
2018-12-24T10:13:00.759Z,8.70
2018-12-24T10:14:21.790Z,8.70
2018-12-24T10:15:44.685Z,8.80
2018-12-24T10:17:05.739Z,8.80
2018-12-24T10:18:26.760Z,8.80
2018-12-24T10:19:47.797Z,9.10
2018-12-24T10:21:08.819Z,9.10
2018-12-24T10:22:29.837Z,9.00
2018-12-24T10:23:50.860Z,9.00
2018-12-24T10:25:12.026Z,9.10
2018-12-24T10:26:33.056Z,8.90
2018-12-24T10:27:54.066Z,9.00
2018-12-24T10:29:15.084Z,9.20
2018-12-24T10:30:36.164Z,9.20
2018-12-24T10:31:57.241Z,9.10
2018-12-24T10:33:18.263Z,9.20
2018-12-24T10:34:39.289Z,9.10
2018-12-24T10:35:53.334Z,9.20
2018-12-24T10:37:08.395Z,9.20
2018-12-24T10:38:23.134Z,9.30
2018-12-24T10:39:24.289Z,9.30
2018-12-24T10:40:46.714Z,9.40
2018-12-24T10:42:07.849Z,9.40
2018-12-24T10:43:28.868Z,9.40
2018-12-24T10:44:49.890Z,9.50
2018-12-24T10:46:10.901Z,9.50
2018-12-24T10:47:12.042Z,9.40
2018-12-24T10:48:33.057Z,9.50
2018-12-24T10:49:54.085Z,9.40
2018-12-24T10:51:15.101Z,9.60
2018-12-24T10:52:36.125Z,9.50
2018-12-24T10:53:57.153Z,9.60
2018-12-24T10:55:18.450Z,9.50
2018-12-24T10:56:39.970Z,9.70
2018-12-24T10:58:02.391Z,9.60
2018-12-24T10:59:23.405Z,9.40
2018-12-24T11:00:44.446Z,9.40
2018-12-24T11:02:05.475Z,9.50
2018-12-24T11:03:26.485Z,9.40
2018-12-24T11:04:47.504Z,9.50
2018-12-24T11:05:48.651Z,9.50
2018-12-24T11:07:09.683Z,9.40
2018-12-24T11:08:30.698Z,9.30
2018-12-24T11:09:51.718Z,9.40
2018-12-24T11:11:12.753Z,9.30
2018-12-24T11:12:33.782Z,9.30
2018-12-24T11:13:54.797Z,9.20
2018-12-24T11:15:15.931Z,9.40
2018-12-24T11:16:36.966Z,9.20
2018-12-24T11:17:38.104Z,9.30
2018-12-24T11:18:59.130Z,9.30
2018-12-24T11:20:20.150Z,9.20
2018-12-24T11:21:41.169Z,9.10
2018-12-24T11:23:02.190Z,9.20
2018-12-24T11:24:23.213Z,9.20
2018-12-24T11:25:44.241Z,9.30
2018-12-24T11:27:05.255Z,9.20
2018-12-24T11:28:26.277Z,9.20
2018-12-24T11:29:47.317Z,9.10
2018-12-24T11:31:08.353Z,9.10
2018-12-24T11:32:29.414Z,9.10
2018-12-24T11:33:50.424Z,9.10
2018-12-24T11:35:11.450Z,9.10
2018-12-24T11:36:25.811Z,9.10
2018-12-24T11:37:40.545Z,9.10
2018-12-24T11:38:55.204Z,9.10
2018-12-24T11:40:09.945Z,9.00
2018-12-24T11:41:24.665Z,9.00
2018-12-24T11:42:39.162Z,9.00
2018-12-24T11:43:40.309Z,8.90
2018-12-24T11:45:01.337Z,8.90
2018-12-24T11:46:22.382Z,8.80
2018-12-24T11:47:43.397Z,8.80
2018-12-24T11:49:04.421Z,8.80
2018-12-24T11:50:25.446Z,8.70
2018-12-24T11:51:46.470Z,8.80
2018-12-24T11:53:07.495Z,8.80
2018-12-24T11:54:28.509Z,8.70
2018-12-24T11:55:29.671Z,8.80
2018-12-24T11:56:50.705Z,8.80
2018-12-24T11:58:13.259Z,8.80
2018-12-24T11:59:34.639Z,8.90
2018-12-24T12:00:55.649Z,8.80
2018-12-24T12:02:16.681Z,8.90
2018-12-24T12:03:37.708Z,8.90
2018-12-24T12:04:58.713Z,8.90
2018-12-24T12:06:20.182Z,9.00
2018-12-24T12:07:41.302Z,9.10
2018-12-24T12:09:24.094Z,9.10
2018-12-24T12:10:45.133Z,9.20
2018-12-24T12:12:06.148Z,9.20
2018-12-24T12:13:27.162Z,9.20
2018-12-24T12:14:28.309Z,9.20
2018-12-24T12:15:49.335Z,9.20
2018-12-24T12:17:10.466Z,9.30
2018-12-24T12:18:31.522Z,9.20
2018-12-24T12:19:52.535Z,9.30
2018-12-24T12:21:13.561Z,9.20
2018-12-24T12:22:34.585Z,9.20
2018-12-24T12:23:55.599Z,9.30
2018-12-24T12:25:16.613Z,9.10
2018-12-24T12:26:37.634Z,9.10
2018-12-24T12:27:58.665Z,9.10
2018-12-24T12:29:19.698Z,9.10
2018-12-24T12:30:40.712Z,9.10
2018-12-24T12:32:01.834Z,9.10
2018-12-24T12:33:22.864Z,9.20
2018-12-24T12:34:43.890Z,9.20
2018-12-24T12:35:58.327Z,9.20
2018-12-24T12:37:13.031Z,9.10
2018-12-24T12:38:29.794Z,9.10
2018-12-24T12:39:44.574Z,9.10
2018-12-24T12:40:59.398Z,9.00
2018-12-24T12:42:14.090Z,9.20
2018-12-24T12:43:15.537Z,9.10
2018-12-24T12:44:38.181Z,9.10
2018-12-24T12:45:59.197Z,9.00
2018-12-24T12:47:20.241Z,9.00
2018-12-24T12:48:41.269Z,9.00
2018-12-24T12:50:02.310Z,8.90
2018-12-24T12:51:23.362Z,9.00
2018-12-24T12:52:44.390Z,8.90
2018-12-24T12:54:05.404Z,8.90
2018-12-24T12:55:26.426Z,9.00
2018-12-24T12:56:47.447Z,8.90
2018-12-24T12:58:08.473Z,8.80
2018-12-24T12:59:29.496Z,8.80
2018-12-24T13:00:50.615Z,8.70
2018-12-24T13:02:11.631Z,8.70
2018-12-24T13:03:32.659Z,8.70
2018-12-24T13:04:53.685Z,8.70
2018-12-24T13:06:14.697Z,8.60
2018-12-24T13:07:35.722Z,8.60
2018-12-24T13:08:56.755Z,8.60
2018-12-24T13:10:17.776Z,8.60
2018-12-24T13:13:00.213Z,8.60
2018-12-24T13:14:21.332Z,8.70
2018-12-24T13:15:42.350Z,8.70
2018-12-24T13:17:03.378Z,8.60
2018-12-24T13:18:24.544Z,8.60
2018-12-24T13:19:45.633Z,8.60
2018-12-24T13:21:06.648Z,8.70
2018-12-24T13:22:07.789Z,8.70
2018-12-24T13:23:28.821Z,8.80
2018-12-24T13:24:49.839Z,8.70
2018-12-24T13:26:10.861Z,8.70
2018-12-24T13:27:31.886Z,9.00
2018-12-24T13:28:33.029Z,9.00
2018-12-24T13:29:54.044Z,9.10
2018-12-24T13:31:15.062Z,9.10
2018-12-24T13:32:36.093Z,9.00
2018-12-24T13:33:57.114Z,9.20
2018-12-24T13:35:18.142Z,9.20
2018-12-24T13:36:32.522Z,9.30
2018-12-24T13:37:47.366Z,9.20
2018-12-24T13:39:02.039Z,9.40
2018-12-24T13:40:16.914Z,9.30
2018-12-24T13:41:31.671Z,9.30
2018-12-24T13:42:46.360Z,9.30
2018-12-24T13:44:01.180Z,9.10
2018-12-24T13:45:15.753Z,9.20
2018-12-24T13:46:30.410Z,9.30
2018-12-24T13:47:45.173Z,9.20
2018-12-24T13:49:00.058Z,9.10
2018-12-24T13:50:14.753Z,9.20
2018-12-24T13:51:29.247Z,9.10
2018-12-24T13:52:43.978Z,9.00
2018-12-24T13:53:58.666Z,9.20
2018-12-24T13:55:13.317Z,9.20
2018-12-24T13:56:28.077Z,9.20
2018-12-24T13:57:42.633Z,9.20
2018-12-24T13:58:58.614Z,9.20
2018-12-24T14:00:13.260Z,9.20
2018-12-24T14:01:28.073Z,9.10
2018-12-24T14:02:42.593Z,9.10
2018-12-24T14:03:57.526Z,9.10
2018-12-24T14:05:12.325Z,9.10
2018-12-24T14:06:13.478Z,9.10
2018-12-24T14:07:34.498Z,9.10
2018-12-24T14:08:55.528Z,9.10
2018-12-24T14:10:16.545Z,9.10
2018-12-24T14:11:37.559Z,9.00
2018-12-24T14:12:58.606Z,9.10
2018-12-24T14:14:19.645Z,9.10
2018-12-24T14:15:40.657Z,9.10
2018-12-24T14:17:01.694Z,9.30
2018-12-24T14:18:02.943Z,9.20
2018-12-24T14:19:23.967Z,9.20
2018-12-24T14:20:45.002Z,9.10
2018-12-24T14:22:06.018Z,9.20
2018-12-24T14:23:27.058Z,9.10
2018-12-24T14:24:48.089Z,9.10
2018-12-24T14:26:09.113Z,9.20
2018-12-24T14:27:30.288Z,9.20
2018-12-24T14:28:51.301Z,9.20
2018-12-24T14:30:12.356Z,9.30
2018-12-24T14:31:33.471Z,9.20
2018-12-24T14:32:54.492Z,9.20
2018-12-24T14:34:15.612Z,9.10
2018-12-24T14:35:36.650Z,8.90
2018-12-24T14:36:57.670Z,8.80
2018-12-24T14:38:18.681Z,8.70
2018-12-24T14:39:39.702Z,8.40
2018-12-24T14:41:00.745Z,8.50
2018-12-24T14:42:21.772Z,8.50
2018-12-24T14:43:42.795Z,8.40
2018-12-24T14:45:04.339Z,8.50
2018-12-24T14:46:25.947Z,8.60
2018-12-24T14:47:47.085Z,8.50
2018-12-24T14:49:08.107Z,8.50
2018-12-24T14:50:29.556Z,8.60
2018-12-24T14:51:50.591Z,8.50
2018-12-24T14:53:11.630Z,8.60
2018-12-24T14:54:32.673Z,8.50
2018-12-24T14:55:53.695Z,8.60
2018-12-24T14:57:14.910Z,8.50
2018-12-24T14:58:35.934Z,8.50
2018-12-24T14:59:56.958Z,8.60
2018-12-24T15:01:17.974Z,8.50
2018-12-24T15:02:38.990Z,8.50
2018-12-24T15:04:00.066Z,8.50
2018-12-24T15:05:21.084Z,8.60
2018-12-24T15:06:42.141Z,8.60
2018-12-24T15:08:03.153Z,8.60
2018-12-24T15:09:24.182Z,8.60
2018-12-24T15:10:45.254Z,8.60
2018-12-24T15:12:06.362Z,8.60
2018-12-24T15:13:27.373Z,8.60
2018-12-24T15:14:48.398Z,8.50
2018-12-24T15:16:09.463Z,8.50
2018-12-24T15:17:30.546Z,8.50
2018-12-24T15:18:51.565Z,8.60
2018-12-24T15:20:13.051Z,8.60
2018-12-24T15:21:34.229Z,8.60
2018-12-24T15:22:55.421Z,8.60
2018-12-24T15:24:16.438Z,8.50
2018-12-24T15:25:37.455Z,8.60
2018-12-24T15:26:58.475Z,8.60
2018-12-24T15:28:19.506Z,8.60
2018-12-24T15:29:40.520Z,8.60
2018-12-24T15:31:01.531Z,8.70
2018-12-24T15:32:22.578Z,8.70
2018-12-24T15:33:43.593Z,8.70
2018-12-24T15:35:04.757Z,8.80
2018-12-24T15:36:19.011Z,8.70
2018-12-24T15:37:33.553Z,8.80
2018-12-24T15:38:48.209Z,8.80
2018-12-24T15:40:02.995Z,8.80
2018-12-24T15:41:17.886Z,8.80
2018-12-24T15:42:32.414Z,8.80
2018-12-24T15:43:47.287Z,8.80
2018-12-24T15:45:02.014Z,8.80
2018-12-24T15:46:16.813Z,8.80
2018-12-24T15:47:31.537Z,8.80
2018-12-24T15:48:46.441Z,8.90
2018-12-24T15:50:01.470Z,8.90
2018-12-24T15:51:15.906Z,9.00
2018-12-24T15:52:30.498Z,9.00
2018-12-24T15:53:45.193Z,9.00
2018-12-24T15:54:46.349Z,9.00
2018-12-24T15:56:07.365Z,9.10
2018-12-24T15:57:28.382Z,9.10
2018-12-24T15:58:49.398Z,9.00
2018-12-24T16:00:10.423Z,9.10
2018-12-24T16:01:31.494Z,9.10
2018-12-24T16:02:52.506Z,9.10
2018-12-24T16:04:13.520Z,9.10
2018-12-24T16:05:34.556Z,9.00
2018-12-24T16:06:35.688Z,9.10
2018-12-24T16:07:56.710Z,9.00
2018-12-24T16:09:17.731Z,8.90
2018-12-24T16:10:38.775Z,8.80
2018-12-24T16:11:59.789Z,8.80
2018-12-24T16:13:20.817Z,8.80
2018-12-24T16:14:41.837Z,8.70
2018-12-24T16:16:02.850Z,8.70
2018-12-24T16:17:23.871Z,8.70
2018-12-24T16:18:44.889Z,8.60
2018-12-24T16:20:05.926Z,8.60
2018-12-24T16:21:26.935Z,8.50
2018-12-24T16:22:47.949Z,8.50
2018-12-24T16:24:08.964Z,8.60
2018-12-24T16:25:29.990Z,8.50
2018-12-24T16:26:51.021Z,8.50
2018-12-24T16:28:12.033Z,8.40
2018-12-24T16:29:33.053Z,8.40
2018-12-24T16:30:54.085Z,8.30
2018-12-24T16:32:15.102Z,8.40
2018-12-24T16:33:16.242Z,8.40
2018-12-24T16:34:37.258Z,8.40
2018-12-24T16:35:52.017Z,8.40
2018-12-24T16:37:06.606Z,8.40
2018-12-24T16:38:07.759Z,8.50
2018-12-24T16:39:28.774Z,8.50
2018-12-24T16:40:49.910Z,8.30
2018-12-24T16:42:10.927Z,8.40
2018-12-24T16:43:31.941Z,8.40
2018-12-24T16:44:52.957Z,8.40
2018-12-24T16:46:13.988Z,8.50
2018-12-24T16:47:35.001Z,8.40
2018-12-24T16:48:56.022Z,8.40
2018-12-24T16:49:57.157Z,8.40
2018-12-24T16:51:18.188Z,8.40
2018-12-24T16:52:39.208Z,8.50
2018-12-24T16:54:00.226Z,8.30
2018-12-24T16:55:21.248Z,8.40
2018-12-24T16:56:42.393Z,8.40
2018-12-24T16:58:03.411Z,8.40
2018-12-24T16:59:24.429Z,8.30
2018-12-24T17:00:45.482Z,8.30
2018-12-24T17:01:46.765Z,8.30
2018-12-24T17:03:07.798Z,8.30
2018-12-24T17:04:28.805Z,8.30
2018-12-24T17:05:49.834Z,8.30
2018-12-24T17:07:10.855Z,8.30
2018-12-24T17:08:31.885Z,8.10
2018-12-24T17:09:52.889Z,8.30
2018-12-24T17:11:13.925Z,8.20
2018-12-24T17:12:34.947Z,8.20
2018-12-24T17:13:55.977Z,8.00
2018-12-24T17:15:16.985Z,8.20
2018-12-24T17:16:38.017Z,8.10
2018-12-24T17:17:59.041Z,8.00
2018-12-24T17:19:20.068Z,7.90
2018-12-24T17:20:41.086Z,7.90
2018-12-24T17:22:02.110Z,7.90
2018-12-24T17:23:23.128Z,7.90
2018-12-24T17:24:44.170Z,7.80